Aérodrome :
LOGIN :

S'inscrire | Disclaimer

   EN    FR    IT 

 










Légende :    VFR   VFR Marginal   IFR   IFR Intensif   IFR Très Intensif
Visi : 
Plafond : 
>= 8 km
>= 3000ft
5 à 8 km
1000 à 3000 ft
1500m à 5 km
500 à 1000 ft
800 à 1500m
200 à 500 ft
< 800m
< 200 ft
Symboles :   Orages  Brouillard  Fortes neiges  Fortes précipitations  Vent > 20 kt
SIGMETs :   Divers  Orages  Givrage  Turbulence  Onde Orograph.  Cendres Volcan.







- Altitude de l'aérodrome : 160 ft
- Code IATA : LRT
- Voir les cartes d'approche


LFRH - Lorient Lann Bihoue

DERNIER METAR :
  • 222030Z AUTO 15003KT CAVOK 10/10 Q1024 TEMPO 0400 BCFG

METARs EXPIRÉS :
  • 222000Z AUTO 00000KT CAVOK 11/10 Q1024 TEMPO 0400 BCFG
  • 221930Z AUTO 00000KT CAVOK 11/10 Q1024 TEMPO 0400 BCFG
  • 221900Z AUTO 00000KT CAVOK 12/10 Q1023 BECMG 1000 BR
  • 221830Z AUTO 19002KT CAVOK 13/11 Q1023 BECMG 1000 BR
  • 221800Z AUTO 16003KT 120V240 CAVOK 14/11 Q1023 BECMG 1000 BR

TAF TAF LFRH
Valide du 22 à 18h jusqu'au 23 à 18h UTC


221700Z 2218/2318 VRB02KT CAVOK
BECMG 2219/2221 1000 BR NSC
TEMPO 2221/2305 0400 BCFG NSC
BECMG 2305/2307 07005KT CAVOK
BECMG 2310/2312 11010KT
BECMG 2316/2318 13003KT
Pas de NOTAMs connus pour ce terrain.



MET'MAP, la Météo Aéronautique d'un coup d'oeil ! - Copyright ORBIFLY Décembre 2007 - Disclaimer

ORBIFLY MET'MAP TEAM :

Programmation & Développement : Alexandra Zaïnal
Conception & Développement : Baudouin d'Aumeries
Co-Programmation & Développement : Marc-Olivier Méhu
Soutien technique & logistique : Manuel Goepfert

Contact : metmap@orbifly.com




SOURCES & CREDITS :

   NOAA